Time;durP1;ratioP1;P1;durP2;ratioP2;P2;SDS_P1;SDS_P2;PMS_P1;PMS_P2;Temp;Humidity;BMP_temperature;BMP_pressure;BME280_temperature;BME280_humidity;BME280_pressure;Samples;Min_cycle;Max_cycle;Signal;HPM_P1;HPM_P2
2022/07/06 00:00:16;;;;;;;24.33;1.67;;;;;;;;;;4910184;29;20040;-61
2022/07/06 00:02:43;;;;;;;32.85;2.33;;;;;;;;;;4906197;29;20120;-62
2022/07/06 00:05:10;;;;;;;20.23;1.48;;;;;;;;;;4893551;29;20046;-61
2022/07/06 00:07:36;;;;;;;32.92;2.58;;;;;;;;;;4913523;29;20056;-61
2022/07/06 00:10:03;;;;;;;15.63;2.00;;;;;;;;;;4909602;29;20108;-61
2022/07/06 00:12:30;;;;;;;19.95;1.38;;;;;;;;;;4908530;29;20048;-61
2022/07/06 00:14:56;;;;;;;24.98;1.73;;;;;;;;;;4910364;29;20513;-61
2022/07/06 00:17:23;;;;;;;16.17;2.08;;;;;;;;;;4908872;29;20135;-62
2022/07/06 00:19:50;;;;;;;33.42;2.85;;;;;;;;;;4899518;29;20040;-61
2022/07/06 00:22:16;;;;;;;29.58;2.60;;;;;;;;;;4913034;29;20113;-62
2022/07/06 00:24:43;;;;;;;22.27;2.78;;;;;;;;;;4909918;29;20040;-62
2022/07/06 00:27:10;;;;;;;24.77;2.33;;;;;;;;;;4909828;29;20565;-62
2022/07/06 00:29:36;;;;;;;27.70;1.90;;;;;;;;;;4910215;29;20040;-61
2022/07/06 00:32:03;;;;;;;16.35;1.80;;;;;;;;;;4893135;29;20045;-61
2022/07/06 00:34:30;;;;;;;21.65;2.53;;;;;;;;;;4914154;29;20054;-61
2022/07/06 00:36:56;;;;;;;30.80;2.47;;;;;;;;;;4880564;29;20090;-62
2022/07/06 00:39:28;;;;;;;15.52;1.25;;;;;;;;;;4901497;29;20148;-61
2022/07/06 00:41:57;;;;;;;18.00;2.65;;;;;;;;;;4893113;29;20100;-61
2022/07/06 00:44:23;;;;;;;24.85;3.50;;;;;;;;;;4910100;29;20124;-61
2022/07/06 00:46:50;;;;;;;30.23;2.00;;;;;;;;;;4911310;29;20405;-61
2022/07/06 00:52:03;;;;;;;31.30;2.67;;;;;;;;;;4897913;29;20580;-61
2022/07/06 00:54:30;;;;;;;22.02;1.52;;;;;;;;;;4892596;29;20044;-61
2022/07/06 00:56:57;;;;;;;32.35;3.40;;;;;;;;;;4892306;29;20076;-61
2022/07/06 00:59:24;;;;;;;16.30;1.33;;;;;;;;;;4914029;29;20489;-61
2022/07/06 01:01:51;;;;;;;32.13;2.10;;;;;;;;;;4882069;29;20052;-61
2022/07/06 01:04:17;;;;;;;33.15;2.47;;;;;;;;;;4916343;29;20044;-61
2022/07/06 01:06:47;;;;;;;11.98;1.38;;;;;;;;;;4913368;29;20080;-60
2022/07/06 01:09:14;;;;;;;49.75;3.72;;;;;;;;;;4913352;29;20028;-61
2022/07/06 01:11:41;;;;;;;19.88;2.50;;;;;;;;;;4894690;29;20575;-61
2022/07/06 01:14:08;;;;;;;18.67;2.53;;;;;;;;;;4895842;29;20474;-60
2022/07/06 01:16:35;;;;;;;32.83;2.55;;;;;;;;;;4899762;29;20036;-60
2022/07/06 01:19:02;;;;;;;23.83;1.58;;;;;;;;;;4888366;29;20071;-61
2022/07/06 01:21:28;;;;;;;22.85;1.52;;;;;;;;;;4892642;29;20064;-60
2022/07/06 01:23:55;;;;;;;25.10;2.85;;;;;;;;;;4912963;29;20143;-60
2022/07/06 01:26:22;;;;;;;30.33;2.70;;;;;;;;;;4880421;29;20052;-60
2022/07/06 01:28:50;;;;;;;32.03;2.45;;;;;;;;;;4897906;29;20676;-60
2022/07/06 01:31:24;;;;;;;54.53;3.80;;;;;;;;;;4899010;29;20062;-60
2022/07/06 01:33:51;;;;;;;32.17;4.07;;;;;;;;;;4895854;29;20044;-60
2022/07/06 01:36:18;;;;;;;20.65;1.55;;;;;;;;;;4912717;29;20626;-61
2022/07/06 01:39:10;;;;;;;23.15;1.65;;;;;;;;;;4895602;29;20127;-61
2022/07/06 01:41:37;;;;;;;20.05;2.08;;;;;;;;;;4896024;29;20450;-60
2022/07/06 01:44:04;;;;;;;22.35;1.75;;;;;;;;;;4895966;29;20045;-60
2022/07/06 01:46:31;;;;;;;14.77;1.35;;;;;;;;;;4899837;29;20044;-61
2022/07/06 01:48:58;;;;;;;38.72;2.50;;;;;;;;;;4912211;29;20493;-60
2022/07/06 01:51:24;;;;;;;19.20;1.88;;;;;;;;;;4912925;29;20044;-60
2022/07/06 01:53:52;;;;;;;30.27;2.47;;;;;;;;;;4895363;29;20489;-60
2022/07/06 01:56:20;;;;;;;39.60;3.40;;;;;;;;;;4880384;29;20064;-60
2022/07/06 01:58:50;;;;;;;46.20;5.05;;;;;;;;;;4897582;29;20076;-60
2022/07/06 02:01:18;;;;;;;22.98;2.08;;;;;;;;;;4915486;29;20406;-61
2022/07/06 02:03:45;;;;;;;23.30;2.20;;;;;;;;;;4911719;29;20074;-61
2022/07/06 02:06:12;;;;;;;26.70;1.85;;;;;;;;;;4895461;29;20071;-61
2022/07/06 02:08:39;;;;;;;23.10;1.80;;;;;;;;;;4895419;29;20579;-61
2022/07/06 02:11:06;;;;;;;21.75;2.30;;;;;;;;;;4893215;29;20044;-61
2022/07/06 02:13:35;;;;;;;31.08;3.60;;;;;;;;;;4899216;29;20051;-61
2022/07/06 02:16:04;;;;;;;20.38;3.72;;;;;;;;;;4878833;29;20071;-61
2022/07/06 02:18:31;;;;;;;18.52;2.25;;;;;;;;;;4891007;29;20040;-61
2022/07/06 02:20:59;;;;;;;23.20;2.53;;;;;;;;;;4895181;29;20044;-61
2022/07/06 02:23:26;;;;;;;24.48;1.80;;;;;;;;;;4894941;29;20398;-61
2022/07/06 02:25:53;;;;;;;38.75;2.75;;;;;;;;;;4896564;29;20048;-60
2022/07/06 02:28:20;;;;;;;27.58;3.30;;;;;;;;;;4898277;29;20512;-61
2022/07/06 02:30:47;;;;;;;23.25;1.77;;;;;;;;;;4895292;29;20048;-61
2022/07/06 02:33:14;;;;;;;21.85;1.50;;;;;;;;;;4911531;29;20047;-61
2022/07/06 02:35:42;;;;;;;35.00;2.92;;;;;;;;;;4894576;29;20474;-61
2022/07/06 02:38:10;;;;;;;18.63;1.30;;;;;;;;;;4892238;29;20052;-61
2022/07/06 02:40:38;;;;;;;25.85;1.77;;;;;;;;;;4900413;29;20052;-61
2022/07/06 02:43:05;;;;;;;17.42;1.20;;;;;;;;;;4912693;29;20437;-61
2022/07/06 02:45:31;;;;;;;62.17;4.00;;;;;;;;;;4909995;29;20040;-61
2022/07/06 02:47:58;;;;;;;46.22;3.20;;;;;;;;;;4911823;29;20048;-61
2022/07/06 02:50:25;;;;;;;32.42;2.10;;;;;;;;;;4906490;29;20409;-61
2022/07/06 02:52:54;;;;;;;21.77;1.65;;;;;;;;;;4911746;29;21253;-61
2022/07/06 02:55:22;;;;;;;24.27;1.75;;;;;;;;;;4913612;29;20408;-61
2022/07/06 02:57:49;;;;;;;44.10;3.03;;;;;;;;;;4910260;29;20044;-61
2022/07/06 03:00:16;;;;;;;28.08;2.67;;;;;;;;;;4911750;29;20099;-61
2022/07/06 03:02:43;;;;;;;37.28;2.50;;;;;;;;;;4909617;29;20071;-61
2022/07/06 03:05:11;;;;;;;24.77;2.00;;;;;;;;;;4910120;29;20068;-61
2022/07/06 03:07:38;;;;;;;24.60;1.65;;;;;;;;;;4915131;29;20504;-61
2022/07/06 03:10:05;;;;;;;15.95;2.40;;;;;;;;;;4910605;29;20509;-61
2022/07/06 03:12:31;;;;;;;19.38;2.28;;;;;;;;;;4907795;29;20048;-61
2022/07/06 03:14:58;;;;;;;25.27;2.60;;;;;;;;;;4894271;29;20044;-61
2022/07/06 03:17:26;;;;;;;25.98;1.90;;;;;;;;;;4903651;29;20484;-61
2022/07/06 03:19:52;;;;;;;47.22;3.53;;;;;;;;;;4911249;29;20135;-61
2022/07/06 03:22:19;;;;;;;27.38;2.50;;;;;;;;;;4913136;29;20040;-61
2022/07/06 03:24:46;;;;;;;24.77;2.72;;;;;;;;;;4909626;29;20505;-61
2022/07/06 03:27:13;;;;;;;18.70;1.40;;;;;;;;;;4909224;29;20079;-61
2022/07/06 03:29:39;;;;;;;19.40;1.55;;;;;;;;;;4909431;29;20080;-61
2022/07/06 03:32:08;;;;;;;24.38;1.73;;;;;;;;;;4909725;29;20064;-61
2022/07/06 03:34:35;;;;;;;24.63;2.20;;;;;;;;;;4913247;29;20099;-61
2022/07/06 03:37:02;;;;;;;24.77;2.28;;;;;;;;;;4906614;29;20056;-61
2022/07/06 03:39:29;;;;;;;21.83;1.95;;;;;;;;;;4925907;29;20083;-60
2022/07/06 03:41:57;;;;;;;31.08;3.45;;;;;;;;;;4912358;29;20101;-61
2022/07/06 03:44:24;;;;;;;23.30;2.55;;;;;;;;;;4929564;29;20040;-61
2022/07/06 03:46:52;;;;;;;39.00;2.83;;;;;;;;;;4931265;29;20449;-61
2022/07/06 03:49:19;;;;;;;26.42;1.98;;;;;;;;;;4915407;29;20050;-61
2022/07/06 03:51:46;;;;;;;15.68;1.70;;;;;;;;;;4912397;29;20138;-62
2022/07/06 03:54:13;;;;;;;23.20;1.73;;;;;;;;;;4911916;29;20071;-62
2022/07/06 03:56:40;;;;;;;27.02;2.22;;;;;;;;;;4929559;29;20504;-61
2022/07/06 03:59:11;;;;;;;16.80;3.50;;;;;;;;;;4911960;29;20494;-62
2022/07/06 04:01:38;;;;;;;35.53;3.00;;;;;;;;;;4916212;29;20058;-62
2022/07/06 04:04:05;;;;;;;26.38;2.25;;;;;;;;;;4912657;29;20051;-61
2022/07/06 04:06:34;;;;;;;20.05;2.22;;;;;;;;;;4911904;29;20051;-62
2022/07/06 04:09:02;;;;;;;20.10;2.50;;;;;;;;;;4912140;29;20045;-61
2022/07/06 04:11:29;;;;;;;34.75;3.55;;;;;;;;;;4909426;29;20504;-61
2022/07/06 04:13:56;;;;;;;21.35;2.60;;;;;;;;;;4901039;29;20511;-62
2022/07/06 04:16:23;;;;;;;23.13;2.75;;;;;;;;;;4915884;29;20583;-62
2022/07/06 04:18:50;;;;;;;36.38;3.60;;;;;;;;;;4928453;29;20047;-62
2022/07/06 04:21:17;;;;;;;16.63;1.88;;;;;;;;;;4911873;29;20056;-62
2022/07/06 04:23:44;;;;;;;38.85;4.18;;;;;;;;;;4906870;29;20052;-62
2022/07/06 04:26:12;;;;;;;27.90;2.65;;;;;;;;;;4911750;29;20055;-62
2022/07/06 04:28:38;;;;;;;25.25;4.95;;;;;;;;;;4915746;29;20142;-62
2022/07/06 04:31:05;;;;;;;36.60;2.50;;;;;;;;;;4912872;29;20527;-62
2022/07/06 04:33:32;;;;;;;27.08;3.33;;;;;;;;;;4907516;29;20075;-63
2022/07/06 04:35:59;;;;;;;27.58;2.58;;;;;;;;;;4903728;29;20095;-63
2022/07/06 04:38:35;;;;;;;38.38;2.70;;;;;;;;;;4911743;29;20058;-62
2022/07/06 04:41:04;;;;;;;24.00;2.20;;;;;;;;;;4912414;29;20075;-63
2022/07/06 04:43:31;;;;;;;23.98;1.70;;;;;;;;;;4911983;29;20145;-63
2022/07/06 04:46:00;;;;;;;15.40;1.48;;;;;;;;;;4912083;29;20595;-63
2022/07/06 04:48:28;;;;;;;29.98;2.03;;;;;;;;;;4911149;29;20139;-63
2022/07/06 04:50:55;;;;;;;26.40;4.05;;;;;;;;;;4911938;29;20044;-63
2022/07/06 04:53:27;;;;;;;37.88;3.65;;;;;;;;;;4911576;29;20103;-63
2022/07/06 04:55:54;;;;;;;60.10;5.20;;;;;;;;;;4913004;29;20042;-63
2022/07/06 04:58:22;;;;;;;31.70;1.98;;;;;;;;;;4915226;29;20075;-63
2022/07/06 05:00:49;;;;;;;22.35;1.55;;;;;;;;;;4911725;29;20050;-63
2022/07/06 05:03:16;;;;;;;22.50;1.60;;;;;;;;;;4907074;29;20051;-63
2022/07/06 05:05:42;;;;;;;23.52;1.60;;;;;;;;;;4907360;29;20485;-63
2022/07/06 05:08:09;;;;;;;54.55;3.60;;;;;;;;;;4911374;29;20048;-63
2022/07/06 05:10:35;;;;;;;39.22;2.60;;;;;;;;;;4913491;29;20377;-63
2022/07/06 05:13:02;;;;;;;23.67;2.75;;;;;;;;;;4903772;29;20068;-63
2022/07/06 05:15:30;;;;;;;19.98;1.80;;;;;;;;;;4906941;29;20051;-62
2022/07/06 05:17:56;;;;;;;43.72;3.67;;;;;;;;;;4910980;29;20046;-62
2022/07/06 05:20:24;;;;;;;20.27;1.35;;;;;;;;;;4911752;29;20493;-63
2022/07/06 05:22:51;;;;;;;40.88;2.72;;;;;;;;;;4913364;29;20044;-62
2022/07/06 05:25:22;;;;;;;23.00;3.63;;;;;;;;;;4899498;29;20052;-63
2022/07/06 05:27:49;;;;;;;48.53;2.97;;;;;;;;;;4911233;29;20044;-63
2022/07/06 05:30:16;;;;;;;46.53;3.65;;;;;;;;;;4910464;29;20039;-62
2022/07/06 05:32:43;;;;;;;31.77;2.15;;;;;;;;;;4911366;29;20441;-63
2022/07/06 05:35:10;;;;;;;26.70;1.75;;;;;;;;;;4914630;29;20066;-63
2022/07/06 05:37:58;;;;;;;38.40;3.17;;;;;;;;;;4915735;29;20052;-63
2022/07/06 05:40:25;;;;;;;24.25;1.77;;;;;;;;;;4917945;29;20051;-63
2022/07/06 05:42:53;;;;;;;27.77;2.13;;;;;;;;;;4914442;29;20131;-63
2022/07/06 05:45:22;;;;;;;18.20;1.40;;;;;;;;;;4914593;29;20051;-62
2022/07/06 05:50:35;;;;;;;19.10;2.15;;;;;;;;;;4914352;29;20040;-63
2022/07/06 05:53:03;;;;;;;27.77;1.75;;;;;;;;;;4915120;29;20560;-63
2022/07/06 05:55:44;;;;;;;57.75;3.63;;;;;;;;;;4914442;29;20587;-63
2022/07/06 05:58:11;;;;;;;44.13;2.80;;;;;;;;;;4933427;29;20051;-64
2022/07/06 06:00:38;;;;;;;39.55;2.95;;;;;;;;;;4903386;29;20058;-63
2022/07/06 06:03:12;;;;;;;18.27;1.27;;;;;;;;;;4897066;29;20104;-63
2022/07/06 06:05:40;;;;;;;33.08;2.17;;;;;;;;;;4903937;29;20055;-64
2022/07/06 06:08:08;;;;;;;29.38;1.90;;;;;;;;;;4913997;29;20064;-63
2022/07/06 06:10:35;;;;;;;18.25;2.13;;;;;;;;;;4929768;29;20123;-64
2022/07/06 06:13:05;;;;;;;25.77;1.70;;;;;;;;;;4914511;29;20456;-64
2022/07/06 06:15:34;;;;;;;42.72;2.78;;;;;;;;;;4914105;29;20523;-64
2022/07/06 06:18:01;;;;;;;28.13;1.85;;;;;;;;;;4913936;29;20142;-64
2022/07/06 06:20:27;;;;;;;22.95;1.52;;;;;;;;;;4931037;29;20036;-63
2022/07/06 06:22:55;;;;;;;67.30;5.05;;;;;;;;;;4915509;29;20511;-64
2022/07/06 06:25:27;;;;;;;28.55;2.15;;;;;;;;;;4934446;29;20130;-64
2022/07/06 06:27:54;;;;;;;32.97;2.28;;;;;;;;;;4930839;29;20043;-63
2022/07/06 06:30:20;;;;;;;29.40;2.22;;;;;;;;;;4930517;29;20209;-63
2022/07/06 06:32:47;;;;;;;37.75;2.65;;;;;;;;;;4913262;29;20047;-64
2022/07/06 06:35:14;;;;;;;30.63;2.60;;;;;;;;;;4930696;29;20048;-64
2022/07/06 06:37:41;;;;;;;50.53;4.22;;;;;;;;;;4934094;29;20058;-64
2022/07/06 06:40:08;;;;;;;32.75;2.13;;;;;;;;;;4931679;29;20139;-64
2022/07/06 06:42:36;;;;;;;18.23;1.33;;;;;;;;;;4930679;29;20568;-64
2022/07/06 06:45:06;;;;;;;31.23;2.00;;;;;;;;;;4929529;29;20043;-64
2022/07/06 06:47:32;;;;;;;19.65;1.40;;;;;;;;;;4930436;29;20318;-63
2022/07/06 06:49:59;;;;;;;40.47;2.65;;;;;;;;;;4913967;29;20458;-64
2022/07/06 06:52:25;;;;;;;24.13;1.70;;;;;;;;;;4933651;29;20135;-64
2022/07/06 06:55:07;;;;;;;21.70;1.92;;;;;;;;;;4931228;29;20047;-64
2022/07/06 06:57:34;;;;;;;33.90;2.78;;;;;;;;;;4913463;29;20493;-64
2022/07/06 07:00:01;;;;;;;23.73;1.83;;;;;;;;;;4930198;29;20102;-65
2022/07/06 07:02:28;;;;;;;25.52;1.73;;;;;;;;;;4929971;29;20040;-64
2022/07/06 07:04:55;;;;;;;35.60;2.90;;;;;;;;;;4931998;29;20044;-64
2022/07/06 07:07:22;;;;;;;29.92;3.90;;;;;;;;;;4932951;29;20048;-64
2022/07/06 07:09:48;;;;;;;20.00;2.03;;;;;;;;;;4930274;29;20497;-64
2022/07/06 07:12:16;;;;;;;32.13;2.25;;;;;;;;;;4921198;29;20036;-64
2022/07/06 07:14:43;;;;;;;35.00;3.38;;;;;;;;;;4930311;29;20044;-64
2022/07/06 07:17:11;;;;;;;30.90;2.35;;;;;;;;;;4930044;29;20048;-65
2022/07/06 07:19:38;;;;;;;21.88;1.98;;;;;;;;;;4934089;29;20050;-64
2022/07/06 07:22:04;;;;;;;30.55;2.22;;;;;;;;;;4929537;29;20062;-64
2022/07/06 07:24:31;;;;;;;31.58;2.35;;;;;;;;;;4904668;29;20138;-64
2022/07/06 07:26:58;;;;;;;36.15;3.25;;;;;;;;;;4925823;29;20082;-64
2022/07/06 07:29:25;;;;;;;25.63;1.95;;;;;;;;;;4929712;29;20087;-64
2022/07/06 07:31:51;;;;;;;43.33;4.95;;;;;;;;;;4915419;29;20119;-64
2022/07/06 07:34:18;;;;;;;30.90;2.67;;;;;;;;;;4932165;29;20051;-64
2022/07/06 07:36:45;;;;;;;22.95;1.70;;;;;;;;;;4924738;29;20091;-63
2022/07/06 07:39:11;;;;;;;20.35;1.42;;;;;;;;;;4929798;29;20044;-64
2022/07/06 07:41:38;;;;;;;17.92;1.58;;;;;;;;;;4926155;29;20090;-63
2022/07/06 07:44:04;;;;;;;25.40;2.55;;;;;;;;;;4912849;29;20095;-63
2022/07/06 07:46:31;;;;;;;18.55;1.77;;;;;;;;;;4933801;29;20472;-64
2022/07/06 07:48:57;;;;;;;34.67;2.90;;;;;;;;;;4924917;29;20047;-63
2022/07/06 07:51:25;;;;;;;32.83;2.55;;;;;;;;;;4912139;29;20046;-64
2022/07/06 07:53:52;;;;;;;21.20;1.60;;;;;;;;;;4929425;29;20047;-64
2022/07/06 07:56:18;;;;;;;25.25;3.03;;;;;;;;;;4929126;29;20071;-63
2022/07/06 07:58:45;;;;;;;42.50;3.28;;;;;;;;;;4932060;29;20111;-63
2022/07/06 08:01:14;;;;;;;20.23;1.80;;;;;;;;;;4913985;29;20044;-64
2022/07/06 08:03:40;;;;;;;24.65;2.45;;;;;;;;;;4928330;29;20039;-63
2022/07/06 08:06:07;;;;;;;21.98;1.70;;;;;;;;;;4911471;29;20512;-63
2022/07/06 08:08:34;;;;;;;24.60;1.90;;;;;;;;;;4917756;29;20067;-63
2022/07/06 08:11:00;;;;;;;30.75;2.13;;;;;;;;;;4930387;29;20067;-63
2022/07/06 08:13:45;;;;;;;32.25;2.28;;;;;;;;;;4915670;29;20039;-63
2022/07/06 08:16:11;;;;;;;47.63;4.05;;;;;;;;;;4930607;29;20075;-63
2022/07/06 08:18:38;;;;;;;23.23;1.70;;;;;;;;;;4923142;29;20058;-63
2022/07/06 08:21:05;;;;;;;17.17;2.13;;;;;;;;;;4913817;29;20075;-63
2022/07/06 08:23:50;;;;;;;32.65;2.58;;;;;;;;;;4911894;29;20071;-63
2022/07/06 08:26:17;;;;;;;32.80;3.38;;;;;;;;;;4911517;29;20068;-64
2022/07/06 08:28:43;;;;;;;38.20;3.13;;;;;;;;;;4915605;29;20050;-63
2022/07/06 08:31:10;;;;;;;22.77;2.03;;;;;;;;;;4930172;29;20489;-63
2022/07/06 08:33:57;;;;;;;25.13;2.70;;;;;;;;;;4928412;29;20485;-64
2022/07/06 08:36:24;;;;;;;29.30;3.60;;;;;;;;;;4928765;29;20091;-63
2022/07/06 08:38:50;;;;;;;27.58;2.45;;;;;;;;;;4928469;29;20081;-64
2022/07/06 08:41:18;;;;;;;27.02;4.53;;;;;;;;;;4928692;29;20075;-64
2022/07/06 08:43:51;;;;;;;57.10;5.18;;;;;;;;;;4931145;29;20047;-64
2022/07/06 08:46:18;;;;;;;21.95;2.13;;;;;;;;;;4930750;29;20078;-64
2022/07/06 08:48:45;;;;;;;20.05;2.30;;;;;;;;;;4928140;29;20036;-63
2022/07/06 08:51:16;;;;;;;20.83;2.53;;;;;;;;;;4908085;29;20098;-63
2022/07/06 08:53:43;;;;;;;18.23;2.10;;;;;;;;;;4928760;29;20063;-64
2022/07/06 08:56:10;;;;;;;39.50;3.53;;;;;;;;;;4911538;29;20040;-64
2022/07/06 08:58:40;;;;;;;31.20;2.30;;;;;;;;;;4933263;29;20036;-64
2022/07/06 09:01:09;;;;;;;17.67;2.30;;;;;;;;;;4928898;29;20051;-63
2022/07/06 09:03:36;;;;;;;25.67;2.58;;;;;;;;;;4928080;29;20050;-65
2022/07/06 09:06:04;;;;;;;38.28;2.80;;;;;;;;;;4928168;29;20130;-64
2022/07/06 09:08:31;;;;;;;19.65;1.45;;;;;;;;;;4917374;29;20509;-64
2022/07/06 09:10:57;;;;;;;47.72;3.30;;;;;;;;;;4930989;29;20040;-64
2022/07/06 09:13:24;;;;;;;41.53;3.00;;;;;;;;;;4918416;29;20040;-64
2022/07/06 09:15:51;;;;;;;22.73;1.65;;;;;;;;;;4929745;29;20040;-64
2022/07/06 09:18:35;;;;;;;27.90;2.60;;;;;;;;;;4914293;29;20087;-64
2022/07/06 09:21:02;;;;;;;16.83;1.27;;;;;;;;;;4932153;29;20059;-63
2022/07/06 09:23:28;;;;;;;39.45;4.75;;;;;;;;;;4931939;29;20083;-64
2022/07/06 09:25:56;;;;;;;41.90;3.83;;;;;;;;;;4933764;29;20501;-64
2022/07/06 09:28:23;;;;;;;27.10;2.15;;;;;;;;;;4934800;29;20071;-65
2022/07/06 09:30:54;;;;;;;54.58;4.07;;;;;;;;;;4931748;29;20417;-64
2022/07/06 09:33:20;;;;;;;56.13;3.83;;;;;;;;;;4931451;29;20048;-64
2022/07/06 09:35:48;;;;;;;26.13;2.72;;;;;;;;;;4915322;29;20091;-64
2022/07/06 09:38:15;;;;;;;36.63;3.67;;;;;;;;;;4931607;29;20083;-64
2022/07/06 09:40:43;;;;;;;29.08;3.13;;;;;;;;;;4935742;29;20552;-65
2022/07/06 09:43:10;;;;;;;12.90;2.10;;;;;;;;;;4932954;29;20420;-65
2022/07/06 09:45:37;;;;;;;27.90;3.20;;;;;;;;;;4931423;29;20040;-65
2022/07/06 09:48:17;;;;;;;24.08;3.55;;;;;;;;;;4930993;29;20051;-65
2022/07/06 09:50:45;;;;;;;37.08;2.88;;;;;;;;;;4931620;29;20461;-65
2022/07/06 09:53:13;;;;;;;41.97;4.30;;;;;;;;;;4931471;29;20063;-65
2022/07/06 09:55:49;;;;;;;28.27;2.10;;;;;;;;;;4936163;29;20469;-64
2022/07/06 09:58:16;;;;;;;29.60;3.45;;;;;;;;;;4932667;29;20063;-65
2022/07/06 10:00:44;;;;;;;30.35;3.67;;;;;;;;;;4931372;29;20127;-64
2022/07/06 10:03:11;;;;;;;36.08;3.55;;;;;;;;;;4930695;29;20558;-65
2022/07/06 10:05:39;;;;;;;22.08;2.50;;;;;;;;;;4927608;29;20040;-65
2022/07/06 10:08:06;;;;;;;23.85;2.08;;;;;;;;;;4932073;29;20124;-65
2022/07/06 10:10:32;;;;;;;20.23;2.20;;;;;;;;;;4933515;29;20074;-65
2022/07/06 10:12:59;;;;;;;19.77;1.45;;;;;;;;;;4930012;29;20043;-65
2022/07/06 10:15:27;;;;;;;14.70;1.13;;;;;;;;;;4930989;29;20074;-65
2022/07/06 10:17:54;;;;;;;27.58;1.95;;;;;;;;;;4930837;29;20449;-65
2022/07/06 10:20:21;;;;;;;29.23;2.42;;;;;;;;;;4912641;29;20417;-65
2022/07/06 10:22:48;;;;;;;38.10;3.30;;;;;;;;;;4916932;29;20455;-64
2022/07/06 10:25:18;;;;;;;12.48;1.05;;;;;;;;;;4932652;29;20480;-65
2022/07/06 10:27:46;;;;;;;25.02;1.80;;;;;;;;;;4931152;29;20054;-65
2022/07/06 10:30:12;;;;;;;28.95;2.05;;;;;;;;;;4930228;29;20111;-65
2022/07/06 10:32:40;;;;;;;31.55;2.47;;;;;;;;;;4927079;29;20044;-65
2022/07/06 10:35:08;;;;;;;25.98;1.88;;;;;;;;;;4930815;29;20043;-65
2022/07/06 10:37:34;;;;;;;32.10;2.92;;;;;;;;;;4934795;29;20063;-65
2022/07/06 10:43:01;;;;;;;41.08;2.72;;;;;;;;;;4930464;29;20051;-65
2022/07/06 10:45:28;;;;;;;15.50;1.20;;;;;;;;;;4897969;29;20434;-64
2022/07/06 10:48:12;;;;;;;33.00;2.35;;;;;;;;;;4930417;29;20115;-65
2022/07/06 10:50:39;;;;;;;24.23;1.70;;;;;;;;;;4930868;29;20035;-65
2022/07/06 10:53:12;;;;;;;24.58;1.77;;;;;;;;;;4931180;29;20036;-65
2022/07/06 10:55:39;;;;;;;16.38;1.23;;;;;;;;;;4914501;29;20091;-65
2022/07/06 10:58:06;;;;;;;19.92;1.45;;;;;;;;;;4930379;29;20111;-64
2022/07/06 11:01:02;;;;;;;30.98;2.15;;;;;;;;;;4930205;29;20075;-65
2022/07/06 11:03:31;;;;;;;23.25;1.65;;;;;;;;;;4913484;29;20106;-64
2022/07/06 11:05:59;;;;;;;33.35;2.30;;;;;;;;;;4923711;29;20047;-65
2022/07/06 11:08:55;;;;;;;15.63;1.20;;;;;;;;;;4920342;29;20416;-64
2022/07/06 11:11:23;;;;;;;31.10;2.10;;;;;;;;;;4927083;29;20572;-65
2022/07/06 11:13:55;;;;;;;39.00;2.58;;;;;;;;;;4933026;29;20044;-65
2022/07/06 11:16:25;;;;;;;31.17;2.05;;;;;;;;;;4932471;29;20062;-64
2022/07/06 11:19:18;;;;;;;22.83;1.55;;;;;;;;;;4929497;29;20056;-65
2022/07/06 11:21:44;;;;;;;25.10;1.70;;;;;;;;;;4926392;29;20139;-65
2022/07/06 11:24:12;;;;;;;30.30;3.05;;;;;;;;;;4909081;29;20051;-65
2022/07/06 11:26:39;;;;;;;24.23;1.70;;;;;;;;;;4930024;29;20075;-65
2022/07/06 11:29:07;;;;;;;34.45;2.50;;;;;;;;;;4930410;29;20040;-65
2022/07/06 11:31:35;;;;;;;37.47;2.47;;;;;;;;;;4929624;29;20067;-64
2022/07/06 11:34:03;;;;;;;44.55;2.97;;;;;;;;;;4908264;29;20067;-65
2022/07/06 11:36:30;;;;;;;28.70;1.98;;;;;;;;;;4929873;29;20560;-65
2022/07/06 11:39:02;;;;;;;40.60;3.20;;;;;;;;;;4929198;29;20138;-65
2022/07/06 11:41:29;;;;;;;43.00;2.97;;;;;;;;;;4929196;29;20567;-65
2022/07/06 11:43:56;;;;;;;48.08;3.13;;;;;;;;;;4931816;29;20698;-65
2022/07/06 11:46:22;;;;;;;25.23;1.75;;;;;;;;;;4932215;29;20065;-65
2022/07/06 11:48:50;;;;;;;29.02;2.00;;;;;;;;;;4928967;29;20074;-65
2022/07/06 11:51:17;;;;;;;22.08;1.58;;;;;;;;;;4929144;29;20051;-65
2022/07/06 11:53:47;;;;;;;24.58;1.70;;;;;;;;;;4929590;29;20071;-64
2022/07/06 11:56:22;;;;;;;37.72;2.50;;;;;;;;;;4913065;29;20054;-65
2022/07/06 11:58:49;;;;;;;38.80;2.80;;;;;;;;;;4932489;29;20040;-65
2022/07/06 12:01:15;;;;;;;32.40;2.22;;;;;;;;;;4921873;29;20115;-65
2022/07/06 12:03:43;;;;;;;27.73;1.90;;;;;;;;;;4919164;29;20053;-65
2022/07/06 12:06:14;;;;;;;19.00;1.90;;;;;;;;;;4914029;29;20040;-65
2022/07/06 12:08:44;;;;;;;36.22;2.53;;;;;;;;;;4912403;29;20063;-64
2022/07/06 12:11:17;;;;;;;15.35;1.15;;;;;;;;;;4926066;29;20520;-65
2022/07/06 12:13:43;;;;;;;28.10;1.98;;;;;;;;;;4929741;29;20071;-64
2022/07/06 12:16:10;;;;;;;44.33;2.97;;;;;;;;;;4929377;29;20074;-65
2022/07/06 12:18:38;;;;;;;44.05;2.97;;;;;;;;;;4924558;29;20040;-65
2022/07/06 12:21:12;;;;;;;17.17;1.27;;;;;;;;;;4929044;29;20097;-66
2022/07/06 12:23:40;;;;;;;26.35;1.83;;;;;;;;;;4928877;29;20078;-65
2022/07/06 12:26:07;;;;;;;20.63;1.48;;;;;;;;;;4912519;29;20036;-65
2022/07/06 12:28:34;;;;;;;39.97;2.85;;;;;;;;;;4915689;29;20131;-65
2022/07/06 12:31:01;;;;;;;28.88;1.92;;;;;;;;;;4929519;29;20103;-65
2022/07/06 12:33:28;;;;;;;13.57;1.05;;;;;;;;;;4911450;29;20043;-65
2022/07/06 12:35:55;;;;;;;30.60;2.05;;;;;;;;;;4928573;29;20048;-65
2022/07/06 12:38:26;;;;;;;40.15;2.67;;;;;;;;;;4928735;29;20052;-65
2022/07/06 12:40:55;;;;;;;51.88;3.38;;;;;;;;;;4931483;29;20083;-65
2022/07/06 12:43:40;;;;;;;20.65;1.85;;;;;;;;;;4931897;29;20047;-65
2022/07/06 12:46:22;;;;;;;13.77;1.00;;;;;;;;;;4932584;29;20040;-65
2022/07/06 12:48:55;;;;;;;23.65;1.63;;;;;;;;;;4932294;29;20409;-64
2022/07/06 12:51:22;;;;;;;41.88;2.75;;;;;;;;;;4932923;29;20078;-65
2022/07/06 12:53:49;;;;;;;38.38;2.58;;;;;;;;;;4932553;29;20126;-64
2022/07/06 12:56:16;;;;;;;34.70;2.40;;;;;;;;;;4932409;29;20119;-65
2022/07/06 12:59:01;;;;;;;18.42;1.30;;;;;;;;;;4937250;29;20043;-65
2022/07/06 13:01:27;;;;;;;30.73;2.10;;;;;;;;;;4905272;29;20413;-64
2022/07/06 13:03:55;;;;;;;21.23;1.52;;;;;;;;;;4928622;29;20078;-65
2022/07/06 13:06:32;;;;;;;53.97;3.55;;;;;;;;;;4931968;29;20051;-65
2022/07/06 13:08:59;;;;;;;62.05;4.03;;;;;;;;;;4932103;29;20047;-64
2022/07/06 13:11:25;;;;;;;32.00;2.20;;;;;;;;;;4929308;29;20107;-65
2022/07/06 13:13:52;;;;;;;49.53;3.30;;;;;;;;;;4919730;29;20080;-65
2022/07/06 13:16:22;;;;;;;26.40;1.90;;;;;;;;;;4934019;29;20422;-65
2022/07/06 13:18:51;;;;;;;37.95;2.53;;;;;;;;;;4930088;29;20118;-65
2022/07/06 13:21:17;;;;;;;38.80;2.80;;;;;;;;;;4928046;29;20028;-65
2022/07/06 13:23:44;;;;;;;34.72;2.35;;;;;;;;;;4932200;29;20457;-64
2022/07/06 13:26:10;;;;;;;32.20;2.15;;;;;;;;;;4932504;29;20131;-65
2022/07/06 13:28:37;;;;;;;25.42;1.80;;;;;;;;;;4935965;29;20425;-65
2022/07/06 13:31:03;;;;;;;37.70;2.45;;;;;;;;;;4931609;29;20082;-64
2022/07/06 13:33:37;;;;;;;32.72;2.25;;;;;;;;;;4931762;29;20047;-65
2022/07/06 13:36:04;;;;;;;30.63;2.08;;;;;;;;;;4932175;29;20111;-65
2022/07/06 13:38:30;;;;;;;35.25;2.38;;;;;;;;;;4931227;29;20048;-65
2022/07/06 13:40:57;;;;;;;35.63;2.38;;;;;;;;;;4934037;29;20126;-64
2022/07/06 13:43:23;;;;;;;33.33;3.88;;;;;;;;;;4933988;29;20079;-65
2022/07/06 13:45:51;;;;;;;23.65;1.63;;;;;;;;;;4931773;29;20050;-65
2022/07/06 13:48:17;;;;;;;16.20;1.15;;;;;;;;;;4931231;29;20693;-64
2022/07/06 13:50:44;;;;;;;27.33;1.83;;;;;;;;;;4931572;29;20114;-64
2022/07/06 13:53:11;;;;;;;29.45;2.00;;;;;;;;;;4932213;29;20040;-64
2022/07/06 13:55:37;;;;;;;19.38;1.50;;;;;;;;;;4935593;29;20453;-65
2022/07/06 13:58:04;;;;;;;27.13;1.95;;;;;;;;;;4930502;29;20091;-65
2022/07/06 14:00:30;;;;;;;21.92;1.77;;;;;;;;;;4926159;29;20110;-64
2022/07/06 14:02:57;;;;;;;50.45;3.35;;;;;;;;;;4914117;29;20043;-65
2022/07/06 14:05:23;;;;;;;32.60;2.22;;;;;;;;;;4931192;29;20139;-65
2022/07/06 14:07:50;;;;;;;51.90;3.42;;;;;;;;;;4934698;29;20467;-65
2022/07/06 14:10:17;;;;;;;26.00;2.80;;;;;;;;;;4895975;29;20086;-64
2022/07/06 14:12:43;;;;;;;36.90;2.45;;;;;;;;;;4927206;29;20047;-65
2022/07/06 14:15:10;;;;;;;31.30;2.10;;;;;;;;;;4931000;29;20066;-65
2022/07/06 14:17:36;;;;;;;48.85;3.33;;;;;;;;;;4903686;29;20048;-65
2022/07/06 14:20:03;;;;;;;47.25;3.13;;;;;;;;;;4916205;29;20044;-65
2022/07/06 14:22:30;;;;;;;26.65;2.42;;;;;;;;;;4916201;29;20048;-65
2022/07/06 14:24:56;;;;;;;23.85;1.63;;;;;;;;;;4915894;29;20785;-64
2022/07/06 14:27:23;;;;;;;59.85;4.07;;;;;;;;;;4915608;29;20509;-65
2022/07/06 14:29:50;;;;;;;46.17;4.13;;;;;;;;;;4899088;29;20581;-65
2022/07/06 14:32:16;;;;;;;23.88;2.08;;;;;;;;;;4915964;29;20501;-65
2022/07/06 14:34:43;;;;;;;29.42;1.92;;;;;;;;;;4916160;29;20080;-64
2022/07/06 14:37:10;;;;;;;44.65;2.90;;;;;;;;;;4915528;29;20143;-65
2022/07/06 14:39:46;;;;;;;51.22;3.75;;;;;;;;;;4915901;29;20047;-65
2022/07/06 14:42:12;;;;;;;31.58;2.17;;;;;;;;;;4898554;29;20040;-65
2022/07/06 14:44:39;;;;;;;30.08;2.35;;;;;;;;;;4915959;29;20040;-65